sensor_id;sensor_type;location;lat;lon;timestamp;temperature;humidity
68026;SHT31;54819;48.030;14.710;2023-05-25T00:00:11;14.42;81.28
68026;SHT31;54819;48.030;14.710;2023-05-25T00:02:39;14.38;81.38
68026;SHT31;54819;48.030;14.710;2023-05-25T00:05:08;14.34;81.82
68026;SHT31;54819;48.030;14.710;2023-05-25T00:07:36;14.35;81.90
68026;SHT31;54819;48.030;14.710;2023-05-25T00:10:04;14.35;82.07
68026;SHT31;54819;48.030;14.710;2023-05-25T00:12:32;14.32;82.24
68026;SHT31;54819;48.030;14.710;2023-05-25T00:14:59;14.33;82.14
68026;SHT31;54819;48.030;14.710;2023-05-25T00:17:26;14.33;82.19
68026;SHT31;54819;48.030;14.710;2023-05-25T00:19:55;14.32;82.11
68026;SHT31;54819;48.030;14.710;2023-05-25T00:22:23;14.31;82.16
68026;SHT31;54819;48.030;14.710;2023-05-25T00:24:54;14.28;82.24
68026;SHT31;54819;48.030;14.710;2023-05-25T00:27:21;14.27;82.25
68026;SHT31;54819;48.030;14.710;2023-05-25T00:29:48;14.29;82.13
68026;SHT31;54819;48.030;14.710;2023-05-25T00:32:14;14.28;82.32
68026;SHT31;54819;48.030;14.710;2023-05-25T00:34:41;14.28;82.70
68026;SHT31;54819;48.030;14.710;2023-05-25T00:37:09;14.29;82.76
68026;SHT31;54819;48.030;14.710;2023-05-25T00:39:35;14.33;82.74
68026;SHT31;54819;48.030;14.710;2023-05-25T00:42:02;14.36;82.67
68026;SHT31;54819;48.030;14.710;2023-05-25T00:44:31;14.36;82.74
68026;SHT31;54819;48.030;14.710;2023-05-25T00:46:59;14.35;82.88
68026;SHT31;54819;48.030;14.710;2023-05-25T00:49:30;14.35;82.73
68026;SHT31;54819;48.030;14.710;2023-05-25T00:52:01;14.36;82.71
68026;SHT31;54819;48.030;14.710;2023-05-25T00:54:28;14.36;82.72
68026;SHT31;54819;48.030;14.710;2023-05-25T00:56:56;14.37;82.70
68026;SHT31;54819;48.030;14.710;2023-05-25T00:59:34;14.36;82.98
68026;SHT31;54819;48.030;14.710;2023-05-25T01:02:12;14.39;82.87
68026;SHT31;54819;48.030;14.710;2023-05-25T01:04:46;14.39;82.81
68026;SHT31;54819;48.030;14.710;2023-05-25T01:07:22;14.39;82.78
68026;SHT31;54819;48.030;14.710;2023-05-25T01:10:01;14.38;82.74
68026;SHT31;54819;48.030;14.710;2023-05-25T01:12:36;14.40;82.74
68026;SHT31;54819;48.030;14.710;2023-05-25T01:15:06;14.37;82.75
68026;SHT31;54819;48.030;14.710;2023-05-25T01:17:34;14.29;82.95
68026;SHT31;54819;48.030;14.710;2023-05-25T01:20:04;14.23;83.23
68026;SHT31;54819;48.030;14.710;2023-05-25T01:25:24;14.11;83.38
68026;SHT31;54819;48.030;14.710;2023-05-25T01:28:06;14.04;83.70
68026;SHT31;54819;48.030;14.710;2023-05-25T01:30:39;13.98;83.87
68026;SHT31;54819;48.030;14.710;2023-05-25T01:33:11;13.97;84.02
68026;SHT31;54819;48.030;14.710;2023-05-25T01:35:40;13.94;83.95
68026;SHT31;54819;48.030;14.710;2023-05-25T01:38:08;13.94;83.79
68026;SHT31;54819;48.030;14.710;2023-05-25T01:40:35;13.93;83.74
68026;SHT31;54819;48.030;14.710;2023-05-25T01:43:02;13.95;83.32
68026;SHT31;54819;48.030;14.710;2023-05-25T01:45:32;13.93;82.92
68026;SHT31;54819;48.030;14.710;2023-05-25T01:50:57;13.93;81.66
68026;SHT31;54819;48.030;14.710;2023-05-25T01:53:51;13.90;81.57
68026;SHT31;54819;48.030;14.710;2023-05-25T01:56:23;13.87;81.62
68026;SHT31;54819;48.030;14.710;2023-05-25T01:58:56;13.87;81.33
68026;SHT31;54819;48.030;14.710;2023-05-25T02:01:26;13.85;81.08
68026;SHT31;54819;48.030;14.710;2023-05-25T02:03:54;13.83;81.05
68026;SHT31;54819;48.030;14.710;2023-05-25T02:06:22;13.82;80.90
68026;SHT31;54819;48.030;14.710;2023-05-25T02:08:48;13.78;80.94
68026;SHT31;54819;48.030;14.710;2023-05-25T02:11:16;13.75;81.04
68026;SHT31;54819;48.030;14.710;2023-05-25T02:13:44;13.73;81.16
68026;SHT31;54819;48.030;14.710;2023-05-25T02:16:11;13.72;81.49
68026;SHT31;54819;48.030;14.710;2023-05-25T02:18:42;13.71;81.64
68026;SHT31;54819;48.030;14.710;2023-05-25T02:21:11;13.71;81.82
68026;SHT31;54819;48.030;14.710;2023-05-25T02:23:37;13.71;81.85
68026;SHT31;54819;48.030;14.710;2023-05-25T02:26:04;13.70;82.09
68026;SHT31;54819;48.030;14.710;2023-05-25T02:28:32;13.67;82.22
68026;SHT31;54819;48.030;14.710;2023-05-25T02:30:58;13.65;82.31
68026;SHT31;54819;48.030;14.710;2023-05-25T02:33:25;13.59;82.50
68026;SHT31;54819;48.030;14.710;2023-05-25T02:35:52;13.55;82.66
68026;SHT31;54819;48.030;14.710;2023-05-25T02:38:19;13.54;82.99
68026;SHT31;54819;48.030;14.710;2023-05-25T02:40:46;13.54;83.12
68026;SHT31;54819;48.030;14.710;2023-05-25T02:43:12;13.54;83.25
68026;SHT31;54819;48.030;14.710;2023-05-25T02:45:39;13.51;83.41
68026;SHT31;54819;48.030;14.710;2023-05-25T02:48:06;13.51;83.40
68026;SHT31;54819;48.030;14.710;2023-05-25T02:50:33;13.50;83.54
68026;SHT31;54819;48.030;14.710;2023-05-25T02:53:02;13.48;83.59
68026;SHT31;54819;48.030;14.710;2023-05-25T02:55:29;13.49;83.63
68026;SHT31;54819;48.030;14.710;2023-05-25T02:57:56;13.48;83.69
68026;SHT31;54819;48.030;14.710;2023-05-25T03:00:38;13.47;83.64
68026;SHT31;54819;48.030;14.710;2023-05-25T03:03:08;13.43;83.67
68026;SHT31;54819;48.030;14.710;2023-05-25T03:05:36;13.45;83.50
68026;SHT31;54819;48.030;14.710;2023-05-25T03:08:03;13.44;83.53
68026;SHT31;54819;48.030;14.710;2023-05-25T03:10:31;13.41;83.47
68026;SHT31;54819;48.030;14.710;2023-05-25T03:12:58;13.40;83.12
68026;SHT31;54819;48.030;14.710;2023-05-25T03:15:24;13.38;83.16
68026;SHT31;54819;48.030;14.710;2023-05-25T03:17:51;13.39;83.03
68026;SHT31;54819;48.030;14.710;2023-05-25T03:20:19;13.39;82.77
68026;SHT31;54819;48.030;14.710;2023-05-25T03:22:50;13.36;82.68
68026;SHT31;54819;48.030;14.710;2023-05-25T03:25:17;13.33;82.58
68026;SHT31;54819;48.030;14.710;2023-05-25T03:27:44;13.30;82.56
68026;SHT31;54819;48.030;14.710;2023-05-25T03:30:11;13.28;82.66
68026;SHT31;54819;48.030;14.710;2023-05-25T03:32:39;13.29;82.63
68026;SHT31;54819;48.030;14.710;2023-05-25T03:35:05;13.30;82.60
68026;SHT31;54819;48.030;14.710;2023-05-25T03:37:33;13.33;82.56
68026;SHT31;54819;48.030;14.710;2023-05-25T03:40:00;13.35;82.28
68026;SHT31;54819;48.030;14.710;2023-05-25T03:42:28;13.34;82.34
68026;SHT31;54819;48.030;14.710;2023-05-25T03:44:56;13.29;82.37
68026;SHT31;54819;48.030;14.710;2023-05-25T03:47:23;13.29;82.24
68026;SHT31;54819;48.030;14.710;2023-05-25T03:49:49;13.26;82.48
68026;SHT31;54819;48.030;14.710;2023-05-25T03:52:17;13.28;82.48
68026;SHT31;54819;48.030;14.710;2023-05-25T03:54:44;13.28;82.44
68026;SHT31;54819;48.030;14.710;2023-05-25T03:57:10;13.31;82.48
68026;SHT31;54819;48.030;14.710;2023-05-25T03:59:37;13.35;82.29
68026;SHT31;54819;48.030;14.710;2023-05-25T04:02:04;13.38;81.99
68026;SHT31;54819;48.030;14.710;2023-05-25T04:04:31;13.38;82.08
68026;SHT31;54819;48.030;14.710;2023-05-25T04:06:58;13.41;81.76
68026;SHT31;54819;48.030;14.710;2023-05-25T04:09:24;13.42;81.57
68026;SHT31;54819;48.030;14.710;2023-05-25T04:11:51;13.42;81.34
68026;SHT31;54819;48.030;14.710;2023-05-25T04:14:18;13.43;81.28
68026;SHT31;54819;48.030;14.710;2023-05-25T04:16:46;13.45;81.21
68026;SHT31;54819;48.030;14.710;2023-05-25T04:19:14;13.51;81.18
68026;SHT31;54819;48.030;14.710;2023-05-25T04:21:41;13.54;80.97
68026;SHT31;54819;48.030;14.710;2023-05-25T04:24:09;13.54;80.62
68026;SHT31;54819;48.030;14.710;2023-05-25T04:26:35;13.51;80.53
68026;SHT31;54819;48.030;14.710;2023-05-25T04:29:04;13.48;80.60
68026;SHT31;54819;48.030;14.710;2023-05-25T04:32:04;13.44;80.71
68026;SHT31;54819;48.030;14.710;2023-05-25T04:34:52;13.41;80.66
68026;SHT31;54819;48.030;14.710;2023-05-25T04:37:22;13.38;80.73
68026;SHT31;54819;48.030;14.710;2023-05-25T04:39:53;13.41;80.85
68026;SHT31;54819;48.030;14.710;2023-05-25T04:42:19;13.40;80.79
68026;SHT31;54819;48.030;14.710;2023-05-25T04:44:51;13.42;80.47
68026;SHT31;54819;48.030;14.710;2023-05-25T04:47:21;13.42;80.21
68026;SHT31;54819;48.030;14.710;2023-05-25T04:49:50;13.41;80.09
68026;SHT31;54819;48.030;14.710;2023-05-25T04:52:18;13.43;80.13
68026;SHT31;54819;48.030;14.710;2023-05-25T04:54:45;13.50;79.97
68026;SHT31;54819;48.030;14.710;2023-05-25T04:57:13;13.54;79.76
68026;SHT31;54819;48.030;14.710;2023-05-25T04:59:40;13.58;79.78
68026;SHT31;54819;48.030;14.710;2023-05-25T05:02:07;13.59;79.48
68026;SHT31;54819;48.030;14.710;2023-05-25T05:04:34;13.65;79.61
68026;SHT31;54819;48.030;14.710;2023-05-25T05:07:04;13.73;79.31
68026;SHT31;54819;48.030;14.710;2023-05-25T05:09:31;13.74;78.86
68026;SHT31;54819;48.030;14.710;2023-05-25T05:11:59;13.77;78.72
68026;SHT31;54819;48.030;14.710;2023-05-25T05:14:27;13.82;78.62
68026;SHT31;54819;48.030;14.710;2023-05-25T05:16:54;13.90;78.68
68026;SHT31;54819;48.030;14.710;2023-05-25T05:19:22;14.07;78.20
68026;SHT31;54819;48.030;14.710;2023-05-25T05:21:49;14.36;77.54
68026;SHT31;54819;48.030;14.710;2023-05-25T05:24:16;14.69;76.78
68026;SHT31;54819;48.030;14.710;2023-05-25T05:26:43;14.88;75.68
68026;SHT31;54819;48.030;14.710;2023-05-25T05:29:32;14.92;75.51
68026;SHT31;54819;48.030;14.710;2023-05-25T05:31:59;14.92;75.21
68026;SHT31;54819;48.030;14.710;2023-05-25T05:34:26;14.86;75.05
68026;SHT31;54819;48.030;14.710;2023-05-25T05:36:53;14.76;75.56
68026;SHT31;54819;48.030;14.710;2023-05-25T05:39:25;14.82;75.61
68026;SHT31;54819;48.030;14.710;2023-05-25T05:41:53;14.76;74.91
68026;SHT31;54819;48.030;14.710;2023-05-25T05:44:20;14.67;75.09
68026;SHT31;54819;48.030;14.710;2023-05-25T05:46:51;14.69;75.12
68026;SHT31;54819;48.030;14.710;2023-05-25T05:49:19;14.74;75.32
68026;SHT31;54819;48.030;14.710;2023-05-25T05:51:45;14.77;74.90
68026;SHT31;54819;48.030;14.710;2023-05-25T05:54:12;14.73;75.12
68026;SHT31;54819;48.030;14.710;2023-05-25T05:56:39;14.77;75.58
68026;SHT31;54819;48.030;14.710;2023-05-25T05:59:06;14.88;75.75
68026;SHT31;54819;48.030;14.710;2023-05-25T06:01:32;14.98;74.74
68026;SHT31;54819;48.030;14.710;2023-05-25T06:04:00;15.00;74.34
68026;SHT31;54819;48.030;14.710;2023-05-25T06:06:26;15.00;74.10
68026;SHT31;54819;48.030;14.710;2023-05-25T06:08:54;15.01;74.58
68026;SHT31;54819;48.030;14.710;2023-05-25T06:11:21;15.11;74.33
68026;SHT31;54819;48.030;14.710;2023-05-25T06:13:48;15.19;73.99
68026;SHT31;54819;48.030;14.710;2023-05-25T06:16:14;15.27;73.63
68026;SHT31;54819;48.030;14.710;2023-05-25T06:18:41;15.21;73.57
68026;SHT31;54819;48.030;14.710;2023-05-25T06:21:08;15.16;73.54
68026;SHT31;54819;48.030;14.710;2023-05-25T06:23:37;15.06;73.64
68026;SHT31;54819;48.030;14.710;2023-05-25T06:26:04;15.03;73.67
68026;SHT31;54819;48.030;14.710;2023-05-25T06:28:32;14.98;73.98
68026;SHT31;54819;48.030;14.710;2023-05-25T06:30:59;15.02;74.17
68026;SHT31;54819;48.030;14.710;2023-05-25T06:33:26;15.04;73.98
68026;SHT31;54819;48.030;14.710;2023-05-25T06:35:53;15.03;73.52
68026;SHT31;54819;48.030;14.710;2023-05-25T06:38:23;15.06;73.85
68026;SHT31;54819;48.030;14.710;2023-05-25T06:40:51;15.12;73.85
68026;SHT31;54819;48.030;14.710;2023-05-25T06:43:18;15.29;73.60
68026;SHT31;54819;48.030;14.710;2023-05-25T06:45:52;15.45;73.00
68026;SHT31;54819;48.030;14.710;2023-05-25T06:48:19;15.48;72.23
68026;SHT31;54819;48.030;14.710;2023-05-25T06:50:46;15.43;72.52
68026;SHT31;54819;48.030;14.710;2023-05-25T06:53:13;15.49;72.38
68026;SHT31;54819;48.030;14.710;2023-05-25T06:55:39;15.55;72.49
68026;SHT31;54819;48.030;14.710;2023-05-25T06:58:06;15.59;72.29
68026;SHT31;54819;48.030;14.710;2023-05-25T07:00:33;15.66;71.88
68026;SHT31;54819;48.030;14.710;2023-05-25T07:03:00;15.76;71.54
68026;SHT31;54819;48.030;14.710;2023-05-25T07:05:27;15.80;71.78
68026;SHT31;54819;48.030;14.710;2023-05-25T07:07:54;15.77;71.38
68026;SHT31;54819;48.030;14.710;2023-05-25T07:10:21;15.79;71.75
68026;SHT31;54819;48.030;14.710;2023-05-25T07:12:48;15.81;71.45
68026;SHT31;54819;48.030;14.710;2023-05-25T07:15:15;15.87;71.56
68026;SHT31;54819;48.030;14.710;2023-05-25T07:17:41;15.89;71.25
68026;SHT31;54819;48.030;14.710;2023-05-25T07:20:08;15.93;71.17
68026;SHT31;54819;48.030;14.710;2023-05-25T07:22:38;15.89;70.76
68026;SHT31;54819;48.030;14.710;2023-05-25T07:25:05;15.88;70.95
68026;SHT31;54819;48.030;14.710;2023-05-25T07:27:32;15.87;71.02
68026;SHT31;54819;48.030;14.710;2023-05-25T07:29:59;15.88;70.52
68026;SHT31;54819;48.030;14.710;2023-05-25T07:32:26;16.03;70.97
68026;SHT31;54819;48.030;14.710;2023-05-25T07:34:53;16.15;70.14
68026;SHT31;54819;48.030;14.710;2023-05-25T07:37:20;16.14;70.47
68026;SHT31;54819;48.030;14.710;2023-05-25T07:39:47;16.23;70.11
68026;SHT31;54819;48.030;14.710;2023-05-25T07:42:13;16.31;70.07
68026;SHT31;54819;48.030;14.710;2023-05-25T07:44:46;16.46;69.86
68026;SHT31;54819;48.030;14.710;2023-05-25T07:47:14;16.47;69.87
68026;SHT31;54819;48.030;14.710;2023-05-25T07:49:41;16.47;69.87
68026;SHT31;54819;48.030;14.710;2023-05-25T07:52:08;16.46;69.60
68026;SHT31;54819;48.030;14.710;2023-05-25T07:54:34;16.37;69.26
68026;SHT31;54819;48.030;14.710;2023-05-25T07:57:05;16.40;69.95
68026;SHT31;54819;48.030;14.710;2023-05-25T07:59:33;16.42;69.48
68026;SHT31;54819;48.030;14.710;2023-05-25T08:02:00;16.41;69.56
68026;SHT31;54819;48.030;14.710;2023-05-25T08:04:29;16.46;69.90
68026;SHT31;54819;48.030;14.710;2023-05-25T08:06:56;16.50;69.67
68026;SHT31;54819;48.030;14.710;2023-05-25T08:09:23;16.54;69.91
68026;SHT31;54819;48.030;14.710;2023-05-25T08:11:50;16.57;69.38
68026;SHT31;54819;48.030;14.710;2023-05-25T08:14:19;16.56;68.89
68026;SHT31;54819;48.030;14.710;2023-05-25T08:16:46;16.54;69.08
68026;SHT31;54819;48.030;14.710;2023-05-25T08:19:13;16.58;69.45
68026;SHT31;54819;48.030;14.710;2023-05-25T08:21:40;16.66;68.83
68026;SHT31;54819;48.030;14.710;2023-05-25T08:24:06;16.73;69.77
68026;SHT31;54819;48.030;14.710;2023-05-25T08:26:34;16.87;68.60
68026;SHT31;54819;48.030;14.710;2023-05-25T08:29:19;16.81;68.69
68026;SHT31;54819;48.030;14.710;2023-05-25T08:31:46;16.81;68.57
68026;SHT31;54819;48.030;14.710;2023-05-25T08:34:15;16.78;69.17
68026;SHT31;54819;48.030;14.710;2023-05-25T08:36:42;16.86;68.87
68026;SHT31;54819;48.030;14.710;2023-05-25T08:39:10;16.88;69.49
68026;SHT31;54819;48.030;14.710;2023-05-25T08:41:39;16.99;69.54
68026;SHT31;54819;48.030;14.710;2023-05-25T08:44:09;17.01;68.99
68026;SHT31;54819;48.030;14.710;2023-05-25T08:46:39;17.06;68.65
68026;SHT31;54819;48.030;14.710;2023-05-25T08:49:08;17.06;68.37
68026;SHT31;54819;48.030;14.710;2023-05-25T08:51:37;17.13;68.89
68026;SHT31;54819;48.030;14.710;2023-05-25T08:54:17;17.21;69.04
68026;SHT31;54819;48.030;14.710;2023-05-25T08:56:52;17.26;68.02
68026;SHT31;54819;48.030;14.710;2023-05-25T09:05:21;17.41;67.67
68026;SHT31;54819;48.030;14.710;2023-05-25T09:07:49;17.47;67.20
68026;SHT31;54819;48.030;14.710;2023-05-25T09:10:22;17.49;67.29
68026;SHT31;54819;48.030;14.710;2023-05-25T09:12:54;17.62;66.99
68026;SHT31;54819;48.030;14.710;2023-05-25T09:15:21;17.69;66.83
68026;SHT31;54819;48.030;14.710;2023-05-25T09:17:48;17.76;66.91
68026;SHT31;54819;48.030;14.710;2023-05-25T09:20:15;17.87;66.21
68026;SHT31;54819;48.030;14.710;2023-05-25T09:22:47;17.95;65.20
68026;SHT31;54819;48.030;14.710;2023-05-25T09:25:16;17.98;65.62
68026;SHT31;54819;48.030;14.710;2023-05-25T09:27:47;17.96;64.51
68026;SHT31;54819;48.030;14.710;2023-05-25T09:30:14;17.95;63.65
68026;SHT31;54819;48.030;14.710;2023-05-25T09:32:41;18.01;64.34
68026;SHT31;54819;48.030;14.710;2023-05-25T09:35:08;18.08;62.94
68026;SHT31;54819;48.030;14.710;2023-05-25T09:37:40;18.10;63.45
68026;SHT31;54819;48.030;14.710;2023-05-25T09:40:09;18.18;63.19
68026;SHT31;54819;48.030;14.710;2023-05-25T09:42:36;18.29;63.63
68026;SHT31;54819;48.030;14.710;2023-05-25T09:45:04;18.36;62.67
68026;SHT31;54819;48.030;14.710;2023-05-25T09:47:34;18.36;61.90
68026;SHT31;54819;48.030;14.710;2023-05-25T09:50:02;18.33;62.39
68026;SHT31;54819;48.030;14.710;2023-05-25T09:52:30;18.35;63.18
68026;SHT31;54819;48.030;14.710;2023-05-25T09:54:58;18.37;62.53
68026;SHT31;54819;48.030;14.710;2023-05-25T09:57:25;18.40;62.07
68026;SHT31;54819;48.030;14.710;2023-05-25T09:59:53;18.45;62.31
68026;SHT31;54819;48.030;14.710;2023-05-25T10:02:20;18.45;61.45
68026;SHT31;54819;48.030;14.710;2023-05-25T10:04:47;18.44;61.58
68026;SHT31;54819;48.030;14.710;2023-05-25T10:07:14;18.43;62.12
68026;SHT31;54819;48.030;14.710;2023-05-25T10:09:42;18.57;62.18
68026;SHT31;54819;48.030;14.710;2023-05-25T10:12:12;18.64;62.04
68026;SHT31;54819;48.030;14.710;2023-05-25T10:14:46;18.74;62.87
68026;SHT31;54819;48.030;14.710;2023-05-25T10:17:22;18.82;62.16
68026;SHT31;54819;48.030;14.710;2023-05-25T10:19:54;18.81;62.12
68026;SHT31;54819;48.030;14.710;2023-05-25T10:22:29;18.82;62.44
68026;SHT31;54819;48.030;14.710;2023-05-25T10:28:49;18.93;62.10
68026;SHT31;54819;48.030;14.710;2023-05-25T10:31:02;18.97;62.52
68026;SHT31;54819;48.030;14.710;2023-05-25T10:33:30;19.08;62.27
68026;SHT31;54819;48.030;14.710;2023-05-25T10:35:58;19.17;62.66
68026;SHT31;54819;48.030;14.710;2023-05-25T10:38:36;19.34;63.29
68026;SHT31;54819;48.030;14.710;2023-05-25T10:41:05;19.44;61.91
68026;SHT31;54819;48.030;14.710;2023-05-25T10:43:37;19.49;61.96
68026;SHT31;54819;48.030;14.710;2023-05-25T10:46:05;19.50;61.48
68026;SHT31;54819;48.030;14.710;2023-05-25T10:51:04;19.59;61.36
68026;SHT31;54819;48.030;14.710;2023-05-25T10:53:35;19.55;61.46
68026;SHT31;54819;48.030;14.710;2023-05-25T10:56:03;19.60;61.63
68026;SHT31;54819;48.030;14.710;2023-05-25T10:58:32;19.57;61.30
68026;SHT31;54819;48.030;14.710;2023-05-25T11:01:09;19.61;61.73
68026;SHT31;54819;48.030;14.710;2023-05-25T11:09:03;19.83;61.51
68026;SHT31;54819;48.030;14.710;2023-05-25T11:14:19;19.97;61.73
68026;SHT31;54819;48.030;14.710;2023-05-25T11:19:48;20.22;61.08
68026;SHT31;54819;48.030;14.710;2023-05-25T11:22:30;20.25;60.17
68026;SHT31;54819;48.030;14.710;2023-05-25T11:25:35;20.30;60.80
68026;SHT31;54819;48.030;14.710;2023-05-25T11:28:09;20.37;60.95
68026;SHT31;54819;48.030;14.710;2023-05-25T11:30:38;20.42;60.32
68026;SHT31;54819;48.030;14.710;2023-05-25T11:33:07;20.44;60.32
68026;SHT31;54819;48.030;14.710;2023-05-25T11:35:34;20.42;59.76
68026;SHT31;54819;48.030;14.710;2023-05-25T11:38:05;20.37;60.42
68026;SHT31;54819;48.030;14.710;2023-05-25T11:40:34;20.47;61.36
68026;SHT31;54819;48.030;14.710;2023-05-25T11:43:05;20.58;60.16
68026;SHT31;54819;48.030;14.710;2023-05-25T11:45:34;20.58;59.95
68026;SHT31;54819;48.030;14.710;2023-05-25T11:48:03;20.63;59.70
68026;SHT31;54819;48.030;14.710;2023-05-25T11:50:31;20.60;59.59
68026;SHT31;54819;48.030;14.710;2023-05-25T11:52:58;20.67;60.12
68026;SHT31;54819;48.030;14.710;2023-05-25T11:55:25;20.66;59.67
68026;SHT31;54819;48.030;14.710;2023-05-25T11:57:55;20.65;59.03
68026;SHT31;54819;48.030;14.710;2023-05-25T12:00:24;20.69;59.28
68026;SHT31;54819;48.030;14.710;2023-05-25T12:02:53;20.77;58.57
68026;SHT31;54819;48.030;14.710;2023-05-25T12:05:22;20.84;58.23
68026;SHT31;54819;48.030;14.710;2023-05-25T12:07:49;20.88;57.46
68026;SHT31;54819;48.030;14.710;2023-05-25T12:10:17;20.96;57.97
68026;SHT31;54819;48.030;14.710;2023-05-25T12:15:22;20.95;55.81
68026;SHT31;54819;48.030;14.710;2023-05-25T12:17:51;20.98;56.94
68026;SHT31;54819;48.030;14.710;2023-05-25T12:20:19;21.01;57.20
68026;SHT31;54819;48.030;14.710;2023-05-25T12:22:47;21.05;56.25
68026;SHT31;54819;48.030;14.710;2023-05-25T12:25:17;21.11;56.25
68026;SHT31;54819;48.030;14.710;2023-05-25T12:27:47;21.16;53.32
68026;SHT31;54819;48.030;14.710;2023-05-25T12:30:14;21.09;53.39
68026;SHT31;54819;48.030;14.710;2023-05-25T12:35:47;21.31;54.26
68026;SHT31;54819;48.030;14.710;2023-05-25T12:38:16;21.32;53.95
68026;SHT31;54819;48.030;14.710;2023-05-25T12:40:45;21.31;52.81
68026;SHT31;54819;48.030;14.710;2023-05-25T12:43:13;21.28;52.57
68026;SHT31;54819;48.030;14.710;2023-05-25T12:45:41;21.27;52.48
68026;SHT31;54819;48.030;14.710;2023-05-25T12:48:08;21.35;52.70
68026;SHT31;54819;48.030;14.710;2023-05-25T12:50:36;21.45;52.53
68026;SHT31;54819;48.030;14.710;2023-05-25T12:53:03;21.54;53.31
68026;SHT31;54819;48.030;14.710;2023-05-25T12:55:31;21.64;53.39
68026;SHT31;54819;48.030;14.710;2023-05-25T12:58:02;21.74;51.82
68026;SHT31;54819;48.030;14.710;2023-05-25T13:03:00;21.82;51.06
68026;SHT31;54819;48.030;14.710;2023-05-25T13:05:28;21.87;51.83
68026;SHT31;54819;48.030;14.710;2023-05-25T13:08:02;21.91;51.10
68026;SHT31;54819;48.030;14.710;2023-05-25T13:10:31;21.87;49.41
68026;SHT31;54819;48.030;14.710;2023-05-25T13:12:58;21.85;50.26
68026;SHT31;54819;48.030;14.710;2023-05-25T13:15:25;21.88;51.88
68026;SHT31;54819;48.030;14.710;2023-05-25T13:17:53;21.98;50.97
68026;SHT31;54819;48.030;14.710;2023-05-25T13:20:24;21.99;49.33
68026;SHT31;54819;48.030;14.710;2023-05-25T13:22:52;21.99;49.40
68026;SHT31;54819;48.030;14.710;2023-05-25T13:25:23;21.99;49.23
68026;SHT31;54819;48.030;14.710;2023-05-25T13:27:53;22.00;49.50
68026;SHT31;54819;48.030;14.710;2023-05-25T13:30:20;22.03;49.92
68026;SHT31;54819;48.030;14.710;2023-05-25T13:32:47;22.11;49.27
68026;SHT31;54819;48.030;14.710;2023-05-25T13:35:17;22.14;49.00
68026;SHT31;54819;48.030;14.710;2023-05-25T13:37:48;22.15;48.87
68026;SHT31;54819;48.030;14.710;2023-05-25T13:40:16;22.18;50.14
68026;SHT31;54819;48.030;14.710;2023-05-25T13:42:44;22.22;50.83
68026;SHT31;54819;48.030;14.710;2023-05-25T13:45:11;22.22;50.98
68026;SHT31;54819;48.030;14.710;2023-05-25T13:47:39;22.16;51.43
68026;SHT31;54819;48.030;14.710;2023-05-25T13:50:09;22.21;52.31
68026;SHT31;54819;48.030;14.710;2023-05-25T13:52:36;22.27;52.30
68026;SHT31;54819;48.030;14.710;2023-05-25T13:55:03;22.28;52.07
68026;SHT31;54819;48.030;14.710;2023-05-25T13:57:30;22.25;52.66
68026;SHT31;54819;48.030;14.710;2023-05-25T13:59:57;22.31;52.49
68026;SHT31;54819;48.030;14.710;2023-05-25T14:02:24;22.39;52.50
68026;SHT31;54819;48.030;14.710;2023-05-25T14:04:51;22.33;52.31
68026;SHT31;54819;48.030;14.710;2023-05-25T14:07:17;22.33;52.42
68026;SHT31;54819;48.030;14.710;2023-05-25T14:09:44;22.37;52.84
68026;SHT31;54819;48.030;14.710;2023-05-25T14:12:11;22.45;53.75
68026;SHT31;54819;48.030;14.710;2023-05-25T14:14:39;22.54;53.20
68026;SHT31;54819;48.030;14.710;2023-05-25T14:17:06;22.59;53.52
68026;SHT31;54819;48.030;14.710;2023-05-25T14:19:33;22.61;53.26
68026;SHT31;54819;48.030;14.710;2023-05-25T14:22:00;22.56;53.37
68026;SHT31;54819;48.030;14.710;2023-05-25T14:24:30;22.53;53.37
68026;SHT31;54819;48.030;14.710;2023-05-25T14:26:57;22.50;53.47
68026;SHT31;54819;48.030;14.710;2023-05-25T14:29:24;22.45;53.57
68026;SHT31;54819;48.030;14.710;2023-05-25T14:31:51;22.47;53.34
68026;SHT31;54819;48.030;14.710;2023-05-25T14:34:18;22.49;53.88
68026;SHT31;54819;48.030;14.710;2023-05-25T14:36:45;22.52;53.46
68026;SHT31;54819;48.030;14.710;2023-05-25T14:39:11;22.50;53.48
68026;SHT31;54819;48.030;14.710;2023-05-25T14:41:42;22.49;53.88
68026;SHT31;54819;48.030;14.710;2023-05-25T14:44:09;22.51;53.02
68026;SHT31;54819;48.030;14.710;2023-05-25T14:46:36;22.49;53.15
68026;SHT31;54819;48.030;14.710;2023-05-25T14:49:03;22.52;53.68
68026;SHT31;54819;48.030;14.710;2023-05-25T14:51:30;22.59;53.72
68026;SHT31;54819;48.030;14.710;2023-05-25T14:53:56;22.59;53.07
68026;SHT31;54819;48.030;14.710;2023-05-25T14:56:25;22.57;52.79
68026;SHT31;54819;48.030;14.710;2023-05-25T14:58:53;22.57;53.27
68026;SHT31;54819;48.030;14.710;2023-05-25T15:01:20;22.56;53.91
68026;SHT31;54819;48.030;14.710;2023-05-25T15:03:50;22.59;53.52
68026;SHT31;54819;48.030;14.710;2023-05-25T15:06:17;22.62;53.79
68026;SHT31;54819;48.030;14.710;2023-05-25T15:08:44;22.63;53.50
68026;SHT31;54819;48.030;14.710;2023-05-25T15:11:11;22.65;53.56
68026;SHT31;54819;48.030;14.710;2023-05-25T15:13:38;22.63;53.23
68026;SHT31;54819;48.030;14.710;2023-05-25T15:16:09;22.61;54.12
68026;SHT31;54819;48.030;14.710;2023-05-25T15:18:37;22.61;54.03
68026;SHT31;54819;48.030;14.710;2023-05-25T15:21:04;22.63;53.72
68026;SHT31;54819;48.030;14.710;2023-05-25T15:23:31;22.59;53.46
68026;SHT31;54819;48.030;14.710;2023-05-25T15:25:58;22.57;53.56
68026;SHT31;54819;48.030;14.710;2023-05-25T15:28:30;22.57;53.89
68026;SHT31;54819;48.030;14.710;2023-05-25T15:30:57;22.57;54.36
68026;SHT31;54819;48.030;14.710;2023-05-25T15:33:28;22.55;54.35
68026;SHT31;54819;48.030;14.710;2023-05-25T15:36:17;22.58;54.19
68026;SHT31;54819;48.030;14.710;2023-05-25T15:38:44;22.58;54.55
68026;SHT31;54819;48.030;14.710;2023-05-25T15:41:14;22.60;54.44
68026;SHT31;54819;48.030;14.710;2023-05-25T15:43:45;22.59;54.61
68026;SHT31;54819;48.030;14.710;2023-05-25T15:46:17;22.57;54.43
68026;SHT31;54819;48.030;14.710;2023-05-25T15:48:44;22.57;54.94
68026;SHT31;54819;48.030;14.710;2023-05-25T15:51:11;22.56;54.40
68026;SHT31;54819;48.030;14.710;2023-05-25T15:53:38;22.54;54.86
68026;SHT31;54819;48.030;14.710;2023-05-25T15:56:05;22.52;54.96
68026;SHT31;54819;48.030;14.710;2023-05-25T15:58:32;22.51;54.80
68026;SHT31;54819;48.030;14.710;2023-05-25T16:01:00;22.46;54.43